sensor_id;sensor_type;location;lat;lon;timestamp;P1;durP1;ratioP1;P2;durP2;ratioP2
78796;SDS011;68145;52.514;13.460;2023-05-07T00:01:59;15.75;;;11.23;;
78796;SDS011;68145;52.514;13.460;2023-05-07T00:04:26;17.95;;;11.70;;
78796;SDS011;68145;52.514;13.460;2023-05-07T00:06:53;13.98;;;10.02;;
78796;SDS011;68145;52.514;13.460;2023-05-07T00:09:20;16.65;;;9.57;;
78796;SDS011;68145;52.514;13.460;2023-05-07T00:11:46;15.10;;;10.23;;
78796;SDS011;68145;52.514;13.460;2023-05-07T00:14:12;14.50;;;8.77;;
78796;SDS011;68145;52.514;13.460;2023-05-07T00:16:38;13.25;;;9.43;;
78796;SDS011;68145;52.514;13.460;2023-05-07T00:19:04;12.15;;;9.35;;
78796;SDS011;68145;52.514;13.460;2023-05-07T00:21:30;13.73;;;9.30;;
78796;SDS011;68145;52.514;13.460;2023-05-07T00:23:56;12.98;;;8.77;;
78796;SDS011;68145;52.514;13.460;2023-05-07T00:26:23;12.95;;;9.15;;
78796;SDS011;68145;52.514;13.460;2023-05-07T00:28:49;11.65;;;9.32;;
78796;SDS011;68145;52.514;13.460;2023-05-07T00:31:15;13.48;;;9.73;;
78796;SDS011;68145;52.514;13.460;2023-05-07T00:33:41;14.98;;;10.18;;
78796;SDS011;68145;52.514;13.460;2023-05-07T00:36:07;15.32;;;9.52;;
78796;SDS011;68145;52.514;13.460;2023-05-07T00:38:33;13.93;;;9.32;;
78796;SDS011;68145;52.514;13.460;2023-05-07T00:40:59;12.50;;;8.60;;
78796;SDS011;68145;52.514;13.460;2023-05-07T00:43:25;13.02;;;9.25;;
78796;SDS011;68145;52.514;13.460;2023-05-07T00:45:52;12.80;;;9.65;;
78796;SDS011;68145;52.514;13.460;2023-05-07T00:48:18;13.48;;;9.35;;
78796;SDS011;68145;52.514;13.460;2023-05-07T00:50:45;12.75;;;9.68;;
78796;SDS011;68145;52.514;13.460;2023-05-07T00:53:12;16.55;;;9.52;;
78796;SDS011;68145;52.514;13.460;2023-05-07T00:55:38;12.70;;;9.30;;
78796;SDS011;68145;52.514;13.460;2023-05-07T00:58:04;13.57;;;9.15;;
78796;SDS011;68145;52.514;13.460;2023-05-07T01:00:30;14.05;;;9.98;;
78796;SDS011;68145;52.514;13.460;2023-05-07T01:02:57;14.18;;;10.00;;
78796;SDS011;68145;52.514;13.460;2023-05-07T01:05:23;15.35;;;10.27;;
78796;SDS011;68145;52.514;13.460;2023-05-07T01:07:50;14.63;;;9.07;;
78796;SDS011;68145;52.514;13.460;2023-05-07T01:10:17;10.73;;;8.75;;
78796;SDS011;68145;52.514;13.460;2023-05-07T01:12:43;17.38;;;10.18;;
78796;SDS011;68145;52.514;13.460;2023-05-07T01:15:10;14.52;;;9.35;;
78796;SDS011;68145;52.514;13.460;2023-05-07T01:17:37;12.85;;;8.95;;
78796;SDS011;68145;52.514;13.460;2023-05-07T01:20:04;11.80;;;9.38;;
78796;SDS011;68145;52.514;13.460;2023-05-07T01:24:57;12.93;;;10.15;;
78796;SDS011;68145;52.514;13.460;2023-05-07T01:27:24;13.48;;;9.38;;
78796;SDS011;68145;52.514;13.460;2023-05-07T01:29:50;14.18;;;10.00;;
78796;SDS011;68145;52.514;13.460;2023-05-07T01:32:17;13.07;;;8.90;;
78796;SDS011;68145;52.514;13.460;2023-05-07T01:34:44;12.48;;;8.43;;
78796;SDS011;68145;52.514;13.460;2023-05-07T01:37:11;10.07;;;8.30;;
78796;SDS011;68145;52.514;13.460;2023-05-07T01:39:38;14.10;;;9.27;;
78796;SDS011;68145;52.514;13.460;2023-05-07T01:42:05;12.77;;;8.77;;
78796;SDS011;68145;52.514;13.460;2023-05-07T01:44:31;11.63;;;8.90;;
78796;SDS011;68145;52.514;13.460;2023-05-07T01:46:58;14.25;;;8.52;;
78796;SDS011;68145;52.514;13.460;2023-05-07T01:49:24;12.85;;;8.98;;
78796;SDS011;68145;52.514;13.460;2023-05-07T01:51:51;15.48;;;9.30;;
78796;SDS011;68145;52.514;13.460;2023-05-07T01:54:17;13.70;;;8.93;;
78796;SDS011;68145;52.514;13.460;2023-05-07T01:56:43;14.52;;;9.10;;
78796;SDS011;68145;52.514;13.460;2023-05-07T01:59:09;11.77;;;8.43;;
78796;SDS011;68145;52.514;13.460;2023-05-07T02:01:35;11.95;;;8.95;;
78796;SDS011;68145;52.514;13.460;2023-05-07T02:04:01;13.80;;;8.88;;
78796;SDS011;68145;52.514;13.460;2023-05-07T02:06:28;12.65;;;8.50;;
78796;SDS011;68145;52.514;13.460;2023-05-07T02:08:54;12.95;;;9.68;;
78796;SDS011;68145;52.514;13.460;2023-05-07T02:11:20;11.93;;;9.50;;
78796;SDS011;68145;52.514;13.460;2023-05-07T02:13:46;11.40;;;8.73;;
78796;SDS011;68145;52.514;13.460;2023-05-07T02:16:12;14.18;;;8.73;;
78796;SDS011;68145;52.514;13.460;2023-05-07T02:18:39;14.07;;;9.23;;
78796;SDS011;68145;52.514;13.460;2023-05-07T02:21:05;11.80;;;8.63;;
78796;SDS011;68145;52.514;13.460;2023-05-07T02:23:31;12.93;;;8.65;;
78796;SDS011;68145;52.514;13.460;2023-05-07T02:25:57;13.02;;;8.27;;
78796;SDS011;68145;52.514;13.460;2023-05-07T02:28:23;11.80;;;8.98;;
78796;SDS011;68145;52.514;13.460;2023-05-07T02:30:50;13.40;;;8.82;;
78796;SDS011;68145;52.514;13.460;2023-05-07T02:33:17;13.68;;;9.35;;
78796;SDS011;68145;52.514;13.460;2023-05-07T02:35:43;12.05;;;8.73;;
78796;SDS011;68145;52.514;13.460;2023-05-07T02:38:09;12.40;;;8.93;;
78796;SDS011;68145;52.514;13.460;2023-05-07T02:40:36;12.55;;;8.32;;
78796;SDS011;68145;52.514;13.460;2023-05-07T02:43:05;11.60;;;8.30;;
78796;SDS011;68145;52.514;13.460;2023-05-07T02:45:32;12.68;;;8.40;;
78796;SDS011;68145;52.514;13.460;2023-05-07T02:47:58;13.40;;;8.57;;
78796;SDS011;68145;52.514;13.460;2023-05-07T02:50:24;11.38;;;8.25;;
78796;SDS011;68145;52.514;13.460;2023-05-07T02:52:51;12.38;;;9.15;;
78796;SDS011;68145;52.514;13.460;2023-05-07T02:55:17;12.30;;;9.43;;
78796;SDS011;68145;52.514;13.460;2023-05-07T02:57:43;13.50;;;8.88;;
78796;SDS011;68145;52.514;13.460;2023-05-07T03:00:10;13.55;;;9.02;;
78796;SDS011;68145;52.514;13.460;2023-05-07T03:02:36;13.90;;;8.57;;
78796;SDS011;68145;52.514;13.460;2023-05-07T03:05:02;13.20;;;8.50;;
78796;SDS011;68145;52.514;13.460;2023-05-07T03:07:28;11.25;;;8.77;;
78796;SDS011;68145;52.514;13.460;2023-05-07T03:09:54;11.63;;;7.95;;
78796;SDS011;68145;52.514;13.460;2023-05-07T03:12:20;13.77;;;8.52;;
78796;SDS011;68145;52.514;13.460;2023-05-07T03:14:46;11.50;;;7.82;;
78796;SDS011;68145;52.514;13.460;2023-05-07T03:17:12;13.50;;;8.57;;
78796;SDS011;68145;52.514;13.460;2023-05-07T03:19:39;14.07;;;8.32;;
78796;SDS011;68145;52.514;13.460;2023-05-07T03:22:05;10.30;;;8.30;;
78796;SDS011;68145;52.514;13.460;2023-05-07T03:24:31;12.95;;;8.50;;
78796;SDS011;68145;52.514;13.460;2023-05-07T03:26:57;11.80;;;8.25;;
78796;SDS011;68145;52.514;13.460;2023-05-07T03:29:23;11.52;;;8.02;;
78796;SDS011;68145;52.514;13.460;2023-05-07T03:31:49;11.48;;;8.45;;
78796;SDS011;68145;52.514;13.460;2023-05-07T03:34:15;12.07;;;8.73;;
78796;SDS011;68145;52.514;13.460;2023-05-07T03:36:46;12.77;;;7.68;;
78796;SDS011;68145;52.514;13.460;2023-05-07T03:39:12;9.55;;;7.97;;
78796;SDS011;68145;52.514;13.460;2023-05-07T03:41:38;13.65;;;8.63;;
78796;SDS011;68145;52.514;13.460;2023-05-07T03:44:04;13.32;;;8.18;;
78796;SDS011;68145;52.514;13.460;2023-05-07T03:46:31;10.93;;;8.38;;
78796;SDS011;68145;52.514;13.460;2023-05-07T03:48:57;12.20;;;8.20;;
78796;SDS011;68145;52.514;13.460;2023-05-07T03:51:24;10.50;;;8.38;;
78796;SDS011;68145;52.514;13.460;2023-05-07T03:53:51;12.27;;;8.35;;
78796;SDS011;68145;52.514;13.460;2023-05-07T03:56:18;11.98;;;8.07;;
78796;SDS011;68145;52.514;13.460;2023-05-07T03:58:44;13.20;;;7.78;;
78796;SDS011;68145;52.514;13.460;2023-05-07T04:01:10;11.13;;;8.02;;
78796;SDS011;68145;52.514;13.460;2023-05-07T04:03:37;11.20;;;7.75;;
78796;SDS011;68145;52.514;13.460;2023-05-07T04:06:04;11.88;;;7.93;;
78796;SDS011;68145;52.514;13.460;2023-05-07T04:08:30;12.38;;;8.65;;
78796;SDS011;68145;52.514;13.460;2023-05-07T04:10:56;10.50;;;7.38;;
78796;SDS011;68145;52.514;13.460;2023-05-07T04:13:22;10.10;;;7.47;;
78796;SDS011;68145;52.514;13.460;2023-05-07T04:15:48;10.88;;;6.95;;
78796;SDS011;68145;52.514;13.460;2023-05-07T04:18:15;11.27;;;7.90;;
78796;SDS011;68145;52.514;13.460;2023-05-07T04:20:41;10.27;;;7.43;;
78796;SDS011;68145;52.514;13.460;2023-05-07T04:23:07;10.55;;;7.60;;
78796;SDS011;68145;52.514;13.460;2023-05-07T04:25:33;12.45;;;7.63;;
78796;SDS011;68145;52.514;13.460;2023-05-07T04:28:00;11.90;;;7.78;;
78796;SDS011;68145;52.514;13.460;2023-05-07T04:30:26;13.20;;;7.03;;
78796;SDS011;68145;52.514;13.460;2023-05-07T04:32:52;12.10;;;7.22;;
78796;SDS011;68145;52.514;13.460;2023-05-07T04:35:18;11.13;;;7.50;;
78796;SDS011;68145;52.514;13.460;2023-05-07T04:37:44;9.77;;;6.72;;
78796;SDS011;68145;52.514;13.460;2023-05-07T04:40:10;11.13;;;6.65;;
78796;SDS011;68145;52.514;13.460;2023-05-07T04:42:36;11.50;;;7.30;;
78796;SDS011;68145;52.514;13.460;2023-05-07T04:45:02;10.07;;;6.10;;
78796;SDS011;68145;52.514;13.460;2023-05-07T04:47:29;9.00;;;6.18;;
78796;SDS011;68145;52.514;13.460;2023-05-07T04:49:57;12.48;;;6.05;;
78796;SDS011;68145;52.514;13.460;2023-05-07T04:52:23;8.98;;;5.68;;
78796;SDS011;68145;52.514;13.460;2023-05-07T04:54:49;9.52;;;6.22;;
78796;SDS011;68145;52.514;13.460;2023-05-07T04:57:15;9.80;;;6.18;;
78796;SDS011;68145;52.514;13.460;2023-05-07T04:59:42;7.95;;;5.97;;
78796;SDS011;68145;52.514;13.460;2023-05-07T05:02:09;10.57;;;6.15;;
78796;SDS011;68145;52.514;13.460;2023-05-07T05:04:36;10.68;;;6.40;;
78796;SDS011;68145;52.514;13.460;2023-05-07T05:07:02;9.68;;;6.35;;
78796;SDS011;68145;52.514;13.460;2023-05-07T05:09:29;9.40;;;6.20;;
78796;SDS011;68145;52.514;13.460;2023-05-07T05:11:55;9.15;;;5.97;;
78796;SDS011;68145;52.514;13.460;2023-05-07T05:14:21;8.88;;;6.28;;
78796;SDS011;68145;52.514;13.460;2023-05-07T05:16:47;8.82;;;5.88;;
78796;SDS011;68145;52.514;13.460;2023-05-07T05:19:13;7.75;;;5.95;;
78796;SDS011;68145;52.514;13.460;2023-05-07T05:21:39;8.32;;;6.07;;
78796;SDS011;68145;52.514;13.460;2023-05-07T05:24:05;10.73;;;6.50;;
78796;SDS011;68145;52.514;13.460;2023-05-07T05:26:31;12.45;;;6.72;;
78796;SDS011;68145;52.514;13.460;2023-05-07T05:28:57;8.07;;;6.10;;
78796;SDS011;68145;52.514;13.460;2023-05-07T05:31:24;10.35;;;6.72;;
78796;SDS011;68145;52.514;13.460;2023-05-07T05:33:50;12.48;;;6.88;;
78796;SDS011;68145;52.514;13.460;2023-05-07T05:36:16;12.00;;;7.18;;
78796;SDS011;68145;52.514;13.460;2023-05-07T05:38:42;9.35;;;6.50;;
78796;SDS011;68145;52.514;13.460;2023-05-07T05:41:09;9.45;;;6.28;;
78796;SDS011;68145;52.514;13.460;2023-05-07T05:43:35;8.80;;;6.72;;
78796;SDS011;68145;52.514;13.460;2023-05-07T05:46:01;9.00;;;6.43;;
78796;SDS011;68145;52.514;13.460;2023-05-07T05:50:55;9.35;;;5.90;;
78796;SDS011;68145;52.514;13.460;2023-05-07T05:53:21;9.95;;;6.65;;
78796;SDS011;68145;52.514;13.460;2023-05-07T05:55:47;8.45;;;6.45;;
78796;SDS011;68145;52.514;13.460;2023-05-07T05:58:13;10.55;;;6.20;;
78796;SDS011;68145;52.514;13.460;2023-05-07T06:00:40;8.52;;;6.88;;
78796;SDS011;68145;52.514;13.460;2023-05-07T06:03:06;9.75;;;6.95;;
78796;SDS011;68145;52.514;13.460;2023-05-07T06:05:32;8.20;;;6.10;;
78796;SDS011;68145;52.514;13.460;2023-05-07T06:07:58;9.65;;;6.10;;
78796;SDS011;68145;52.514;13.460;2023-05-07T06:10:24;12.55;;;6.45;;
78796;SDS011;68145;52.514;13.460;2023-05-07T06:12:52;10.30;;;6.93;;
78796;SDS011;68145;52.514;13.460;2023-05-07T06:15:18;8.05;;;5.95;;
78796;SDS011;68145;52.514;13.460;2023-05-07T06:17:44;9.48;;;6.53;;
78796;SDS011;68145;52.514;13.460;2023-05-07T06:20:14;10.68;;;7.25;;
78796;SDS011;68145;52.514;13.460;2023-05-07T06:22:40;10.68;;;6.60;;
78796;SDS011;68145;52.514;13.460;2023-05-07T06:25:06;9.18;;;6.43;;
78796;SDS011;68145;52.514;13.460;2023-05-07T06:27:32;8.88;;;6.05;;
78796;SDS011;68145;52.514;13.460;2023-05-07T06:29:58;8.65;;;6.43;;
78796;SDS011;68145;52.514;13.460;2023-05-07T06:32:25;8.18;;;6.72;;
78796;SDS011;68145;52.514;13.460;2023-05-07T06:34:51;10.13;;;6.10;;
78796;SDS011;68145;52.514;13.460;2023-05-07T06:37:17;8.63;;;6.28;;
78796;SDS011;68145;52.514;13.460;2023-05-07T06:39:43;7.85;;;5.68;;
78796;SDS011;68145;52.514;13.460;2023-05-07T06:42:09;8.43;;;6.57;;
78796;SDS011;68145;52.514;13.460;2023-05-07T06:44:35;8.40;;;5.55;;
78796;SDS011;68145;52.514;13.460;2023-05-07T06:47:01;8.82;;;5.97;;
78796;SDS011;68145;52.514;13.460;2023-05-07T06:49:28;7.30;;;6.03;;
78796;SDS011;68145;52.514;13.460;2023-05-07T06:51:54;6.88;;;5.40;;
78796;SDS011;68145;52.514;13.460;2023-05-07T06:54:20;9.13;;;5.72;;
78796;SDS011;68145;52.514;13.460;2023-05-07T06:56:46;8.38;;;5.88;;
78796;SDS011;68145;52.514;13.460;2023-05-07T06:59:12;7.18;;;5.18;;
78796;SDS011;68145;52.514;13.460;2023-05-07T07:01:38;9.50;;;5.50;;
78796;SDS011;68145;52.514;13.460;2023-05-07T07:04:05;8.95;;;5.68;;
78796;SDS011;68145;52.514;13.460;2023-05-07T07:06:31;8.35;;;5.22;;
78796;SDS011;68145;52.514;13.460;2023-05-07T07:08:58;9.25;;;6.10;;
78796;SDS011;68145;52.514;13.460;2023-05-07T07:11:24;9.15;;;5.95;;
78796;SDS011;68145;52.514;13.460;2023-05-07T07:13:50;8.30;;;6.43;;
78796;SDS011;68145;52.514;13.460;2023-05-07T07:16:19;8.05;;;5.53;;
78796;SDS011;68145;52.514;13.460;2023-05-07T07:18:45;8.77;;;5.70;;
78796;SDS011;68145;52.514;13.460;2023-05-07T07:21:11;7.10;;;5.40;;
78796;SDS011;68145;52.514;13.460;2023-05-07T07:23:37;7.93;;;5.32;;
78796;SDS011;68145;52.514;13.460;2023-05-07T07:26:03;7.93;;;5.20;;
78796;SDS011;68145;52.514;13.460;2023-05-07T07:28:30;8.48;;;5.28;;
78796;SDS011;68145;52.514;13.460;2023-05-07T07:30:56;6.22;;;4.20;;
78796;SDS011;68145;52.514;13.460;2023-05-07T07:33:23;6.95;;;4.53;;
78796;SDS011;68145;52.514;13.460;2023-05-07T07:35:49;5.75;;;4.30;;
78796;SDS011;68145;52.514;13.460;2023-05-07T07:38:15;6.95;;;4.50;;
78796;SDS011;68145;52.514;13.460;2023-05-07T07:40:41;7.97;;;4.55;;
78796;SDS011;68145;52.514;13.460;2023-05-07T07:43:08;8.40;;;4.45;;
78796;SDS011;68145;52.514;13.460;2023-05-07T07:45:35;6.68;;;4.57;;
78796;SDS011;68145;52.514;13.460;2023-05-07T07:48:01;6.15;;;4.35;;
78796;SDS011;68145;52.514;13.460;2023-05-07T07:50:27;5.90;;;3.90;;
78796;SDS011;68145;52.514;13.460;2023-05-07T07:52:53;7.05;;;4.57;;
78796;SDS011;68145;52.514;13.460;2023-05-07T07:55:19;8.30;;;4.43;;
78796;SDS011;68145;52.514;13.460;2023-05-07T07:57:48;5.50;;;3.75;;
78796;SDS011;68145;52.514;13.460;2023-05-07T08:00:14;6.68;;;4.20;;
78796;SDS011;68145;52.514;13.460;2023-05-07T08:02:40;6.35;;;4.00;;
78796;SDS011;68145;52.514;13.460;2023-05-07T08:05:06;5.22;;;3.83;;
78796;SDS011;68145;52.514;13.460;2023-05-07T08:07:33;6.00;;;3.88;;
78796;SDS011;68145;52.514;13.460;2023-05-07T08:09:59;7.75;;;4.22;;
78796;SDS011;68145;52.514;13.460;2023-05-07T08:12:25;5.78;;;3.60;;
78796;SDS011;68145;52.514;13.460;2023-05-07T08:14:51;4.97;;;3.67;;
78796;SDS011;68145;52.514;13.460;2023-05-07T08:17:17;6.10;;;3.55;;
78796;SDS011;68145;52.514;13.460;2023-05-07T08:19:43;5.75;;;3.50;;
78796;SDS011;68145;52.514;13.460;2023-05-07T08:22:10;5.05;;;3.50;;
78796;SDS011;68145;52.514;13.460;2023-05-07T08:24:36;7.45;;;3.70;;
78796;SDS011;68145;52.514;13.460;2023-05-07T08:27:02;5.68;;;3.53;;
78796;SDS011;68145;52.514;13.460;2023-05-07T08:29:29;6.05;;;3.58;;
78796;SDS011;68145;52.514;13.460;2023-05-07T08:31:55;4.57;;;3.13;;
78796;SDS011;68145;52.514;13.460;2023-05-07T08:34:21;4.20;;;3.28;;
78796;SDS011;68145;52.514;13.460;2023-05-07T08:36:48;5.60;;;3.42;;
78796;SDS011;68145;52.514;13.460;2023-05-07T08:39:17;7.03;;;3.67;;
78796;SDS011;68145;52.514;13.460;2023-05-07T08:41:46;5.75;;;4.00;;
78796;SDS011;68145;52.514;13.460;2023-05-07T08:44:14;5.75;;;3.53;;
78796;SDS011;68145;52.514;13.460;2023-05-07T08:46:41;5.03;;;3.50;;
78796;SDS011;68145;52.514;13.460;2023-05-07T08:49:08;4.50;;;3.35;;
78796;SDS011;68145;52.514;13.460;2023-05-07T08:51:34;6.38;;;3.45;;
78796;SDS011;68145;52.514;13.460;2023-05-07T08:54:01;4.10;;;3.10;;
78796;SDS011;68145;52.514;13.460;2023-05-07T08:56:27;6.13;;;3.38;;
78796;SDS011;68145;52.514;13.460;2023-05-07T08:58:53;5.03;;;3.22;;
78796;SDS011;68145;52.514;13.460;2023-05-07T09:01:23;5.53;;;3.75;;
78796;SDS011;68145;52.514;13.460;2023-05-07T09:03:50;6.75;;;3.40;;
78796;SDS011;68145;52.514;13.460;2023-05-07T09:06:17;5.75;;;3.80;;
78796;SDS011;68145;52.514;13.460;2023-05-07T09:08:50;6.38;;;3.80;;
78796;SDS011;68145;52.514;13.460;2023-05-07T09:11:17;6.00;;;4.03;;
78796;SDS011;68145;52.514;13.460;2023-05-07T09:13:46;5.78;;;3.58;;
78796;SDS011;68145;52.514;13.460;2023-05-07T09:16:12;4.50;;;3.22;;
78796;SDS011;68145;52.514;13.460;2023-05-07T09:18:44;4.00;;;3.13;;
78796;SDS011;68145;52.514;13.460;2023-05-07T09:21:14;7.82;;;4.32;;
78796;SDS011;68145;52.514;13.460;2023-05-07T09:23:41;5.25;;;3.20;;
78796;SDS011;68145;52.514;13.460;2023-05-07T09:26:07;5.38;;;3.75;;
78796;SDS011;68145;52.514;13.460;2023-05-07T09:28:42;4.75;;;3.28;;
78796;SDS011;68145;52.514;13.460;2023-05-07T09:31:09;4.97;;;3.40;;
78796;SDS011;68145;52.514;13.460;2023-05-07T09:33:35;4.53;;;3.30;;
78796;SDS011;68145;52.514;13.460;2023-05-07T09:36:05;3.97;;;2.83;;
78796;SDS011;68145;52.514;13.460;2023-05-07T09:38:32;6.05;;;3.65;;
78796;SDS011;68145;52.514;13.460;2023-05-07T09:41:02;8.15;;;3.75;;
78796;SDS011;68145;52.514;13.460;2023-05-07T09:43:31;4.63;;;2.85;;
78796;SDS011;68145;52.514;13.460;2023-05-07T09:45:58;5.85;;;3.50;;
78796;SDS011;68145;52.514;13.460;2023-05-07T09:48:26;4.63;;;2.75;;
78796;SDS011;68145;52.514;13.460;2023-05-07T09:50:53;6.20;;;3.53;;
78796;SDS011;68145;52.514;13.460;2023-05-07T09:53:24;4.05;;;3.00;;
78796;SDS011;68145;52.514;13.460;2023-05-07T09:55:50;3.97;;;2.60;;
78796;SDS011;68145;52.514;13.460;2023-05-07T09:58:17;5.05;;;2.53;;
78796;SDS011;68145;52.514;13.460;2023-05-07T10:00:44;7.28;;;2.92;;
78796;SDS011;68145;52.514;13.460;2023-05-07T10:03:11;4.28;;;2.50;;
78796;SDS011;68145;52.514;13.460;2023-05-07T10:05:40;5.45;;;2.83;;
78796;SDS011;68145;52.514;13.460;2023-05-07T10:08:09;5.47;;;2.72;;
78796;SDS011;68145;52.514;13.460;2023-05-07T10:10:36;5.10;;;2.55;;
78796;SDS011;68145;52.514;13.460;2023-05-07T10:13:02;3.42;;;2.28;;
78796;SDS011;68145;52.514;13.460;2023-05-07T10:15:30;4.40;;;2.13;;
78796;SDS011;68145;52.514;13.460;2023-05-07T10:17:57;3.45;;;2.22;;
78796;SDS011;68145;52.514;13.460;2023-05-07T10:20:23;4.28;;;2.75;;
78796;SDS011;68145;52.514;13.460;2023-05-07T10:22:50;4.60;;;2.47;;
78796;SDS011;68145;52.514;13.460;2023-05-07T10:25:18;5.07;;;3.10;;
78796;SDS011;68145;52.514;13.460;2023-05-07T10:27:46;6.25;;;3.83;;
78796;SDS011;68145;52.514;13.460;2023-05-07T10:32:44;4.07;;;3.05;;
78796;SDS011;68145;52.514;13.460;2023-05-07T10:35:17;5.80;;;3.92;;
78796;SDS011;68145;52.514;13.460;2023-05-07T10:37:45;8.18;;;4.47;;
78796;SDS011;68145;52.514;13.460;2023-05-07T10:40:11;8.77;;;3.80;;
78796;SDS011;68145;52.514;13.460;2023-05-07T10:42:38;6.85;;;4.53;;
78796;SDS011;68145;52.514;13.460;2023-05-07T10:45:13;5.25;;;3.40;;
78796;SDS011;68145;52.514;13.460;2023-05-07T10:50:26;3.70;;;2.42;;
78796;SDS011;68145;52.514;13.460;2023-05-07T10:53:34;7.15;;;3.58;;
78796;SDS011;68145;52.514;13.460;2023-05-07T10:55:41;7.97;;;4.28;;
78796;SDS011;68145;52.514;13.460;2023-05-07T10:58:26;11.82;;;4.15;;
78796;SDS011;68145;52.514;13.460;2023-05-07T11:00:59;5.18;;;2.53;;
78796;SDS011;68145;52.514;13.460;2023-05-07T11:03:26;6.85;;;2.33;;
78796;SDS011;68145;52.514;13.460;2023-05-07T11:06:12;4.50;;;2.45;;
78796;SDS011;68145;52.514;13.460;2023-05-07T11:08:57;4.03;;;2.50;;
78796;SDS011;68145;52.514;13.460;2023-05-07T11:14:08;2.95;;;2.10;;
78796;SDS011;68145;52.514;13.460;2023-05-07T11:16:34;4.35;;;2.50;;
78796;SDS011;68145;52.514;13.460;2023-05-07T11:19:01;4.47;;;2.63;;
78796;SDS011;68145;52.514;13.460;2023-05-07T11:21:31;3.05;;;2.08;;
78796;SDS011;68145;52.514;13.460;2023-05-07T11:23:57;3.90;;;2.67;;
78796;SDS011;68145;52.514;13.460;2023-05-07T11:26:24;4.65;;;2.50;;
78796;SDS011;68145;52.514;13.460;2023-05-07T11:28:50;5.47;;;2.50;;
78796;SDS011;68145;52.514;13.460;2023-05-07T11:31:20;4.53;;;2.33;;
78796;SDS011;68145;52.514;13.460;2023-05-07T11:33:47;5.57;;;3.40;;
78796;SDS011;68145;52.514;13.460;2023-05-07T11:36:13;3.63;;;2.33;;
78796;SDS011;68145;52.514;13.460;2023-05-07T11:38:39;8.13;;;3.10;;
78796;SDS011;68145;52.514;13.460;2023-05-07T11:41:05;7.10;;;3.58;;
78796;SDS011;68145;52.514;13.460;2023-05-07T11:43:31;4.97;;;3.20;;
78796;SDS011;68145;52.514;13.460;2023-05-07T11:46:19;4.43;;;2.47;;
78796;SDS011;68145;52.514;13.460;2023-05-07T11:48:44;6.05;;;3.55;;
78796;SDS011;68145;52.514;13.460;2023-05-07T11:51:10;6.05;;;3.38;;
78796;SDS011;68145;52.514;13.460;2023-05-07T11:53:39;4.95;;;2.95;;
78796;SDS011;68145;52.514;13.460;2023-05-07T11:56:08;4.47;;;2.22;;
78796;SDS011;68145;52.514;13.460;2023-05-07T11:58:35;5.35;;;2.08;;
78796;SDS011;68145;52.514;13.460;2023-05-07T12:01:01;3.70;;;2.28;;
78796;SDS011;68145;52.514;13.460;2023-05-07T12:03:27;4.72;;;2.78;;
78796;SDS011;68145;52.514;13.460;2023-05-07T12:05:54;5.00;;;3.20;;
78796;SDS011;68145;52.514;13.460;2023-05-07T12:08:20;4.50;;;2.47;;
78796;SDS011;68145;52.514;13.460;2023-05-07T12:10:48;6.07;;;2.30;;
78796;SDS011;68145;52.514;13.460;2023-05-07T12:13:17;8.73;;;6.30;;
78796;SDS011;68145;52.514;13.460;2023-05-07T12:15:44;5.65;;;3.67;;
78796;SDS011;68145;52.514;13.460;2023-05-07T12:18:13;5.47;;;3.63;;
78796;SDS011;68145;52.514;13.460;2023-05-07T12:20:41;4.47;;;2.50;;
78796;SDS011;68145;52.514;13.460;2023-05-07T12:23:07;4.63;;;2.40;;
78796;SDS011;68145;52.514;13.460;2023-05-07T12:25:38;5.43;;;2.30;;
78796;SDS011;68145;52.514;13.460;2023-05-07T12:28:04;4.13;;;2.38;;
78796;SDS011;68145;52.514;13.460;2023-05-07T12:30:37;6.78;;;2.60;;
78796;SDS011;68145;52.514;13.460;2023-05-07T12:33:03;4.50;;;2.40;;
78796;SDS011;68145;52.514;13.460;2023-05-07T12:35:29;4.05;;;2.15;;
78796;SDS011;68145;52.514;13.460;2023-05-07T12:37:59;6.40;;;4.35;;
78796;SDS011;68145;52.514;13.460;2023-05-07T12:40:39;4.10;;;2.35;;
78796;SDS011;68145;52.514;13.460;2023-05-07T12:43:05;4.72;;;3.00;;
78796;SDS011;68145;52.514;13.460;2023-05-07T12:45:31;6.30;;;3.88;;
78796;SDS011;68145;52.514;13.460;2023-05-07T12:48:00;4.90;;;2.45;;
78796;SDS011;68145;52.514;13.460;2023-05-07T12:50:30;4.68;;;3.33;;
78796;SDS011;68145;52.514;13.460;2023-05-07T12:52:57;5.25;;;3.65;;
78796;SDS011;68145;52.514;13.460;2023-05-07T12:55:23;4.35;;;2.60;;
78796;SDS011;68145;52.514;13.460;2023-05-07T12:57:49;11.00;;;5.32;;
78796;SDS011;68145;52.514;13.460;2023-05-07T13:00:16;3.97;;;2.80;;
78796;SDS011;68145;52.514;13.460;2023-05-07T13:02:43;3.25;;;2.45;;
78796;SDS011;68145;52.514;13.460;2023-05-07T13:05:09;2.85;;;1.73;;
78796;SDS011;68145;52.514;13.460;2023-05-07T13:07:35;3.42;;;2.00;;
78796;SDS011;68145;52.514;13.460;2023-05-07T13:10:02;3.45;;;1.80;;
78796;SDS011;68145;52.514;13.460;2023-05-07T13:12:28;9.48;;;5.90;;
78796;SDS011;68145;52.514;13.460;2023-05-07T13:14:54;3.72;;;2.00;;
78796;SDS011;68145;52.514;13.460;2023-05-07T13:17:20;6.43;;;3.13;;
78796;SDS011;68145;52.514;13.460;2023-05-07T13:19:46;4.78;;;2.50;;
78796;SDS011;68145;52.514;13.460;2023-05-07T13:22:12;3.90;;;2.60;;
78796;SDS011;68145;52.514;13.460;2023-05-07T13:24:38;4.53;;;2.65;;
78796;SDS011;68145;52.514;13.460;2023-05-07T13:27:06;2.85;;;2.00;;
78796;SDS011;68145;52.514;13.460;2023-05-07T13:29:32;5.40;;;2.65;;
78796;SDS011;68145;52.514;13.460;2023-05-07T13:31:58;9.02;;;4.88;;
78796;SDS011;68145;52.514;13.460;2023-05-07T13:34:25;4.72;;;2.30;;
78796;SDS011;68145;52.514;13.460;2023-05-07T13:36:51;7.28;;;3.67;;
78796;SDS011;68145;52.514;13.460;2023-05-07T13:39:17;6.45;;;2.28;;
78796;SDS011;68145;52.514;13.460;2023-05-07T13:41:43;3.38;;;2.25;;
78796;SDS011;68145;52.514;13.460;2023-05-07T13:44:09;2.97;;;1.80;;
78796;SDS011;68145;52.514;13.460;2023-05-07T13:46:35;8.48;;;4.03;;
78796;SDS011;68145;52.514;13.460;2023-05-07T13:49:01;2.55;;;1.92;;
78796;SDS011;68145;52.514;13.460;2023-05-07T13:51:27;5.05;;;2.72;;
78796;SDS011;68145;52.514;13.460;2023-05-07T13:53:53;5.75;;;3.00;;
78796;SDS011;68145;52.514;13.460;2023-05-07T13:56:20;4.45;;;2.22;;
78796;SDS011;68145;52.514;13.460;2023-05-07T13:58:46;6.05;;;2.83;;
78796;SDS011;68145;52.514;13.460;2023-05-07T14:01:12;4.25;;;2.35;;
78796;SDS011;68145;52.514;13.460;2023-05-07T14:03:38;3.75;;;2.50;;
78796;SDS011;68145;52.514;13.460;2023-05-07T14:06:07;8.18;;;4.25;;
78796;SDS011;68145;52.514;13.460;2023-05-07T14:08:33;8.57;;;3.90;;
78796;SDS011;68145;52.514;13.460;2023-05-07T14:10:59;4.28;;;2.30;;
78796;SDS011;68145;52.514;13.460;2023-05-07T14:13:25;3.60;;;2.40;;
78796;SDS011;68145;52.514;13.460;2023-05-07T14:15:52;5.75;;;2.65;;
78796;SDS011;68145;52.514;13.460;2023-05-07T14:18:18;4.60;;;2.65;;
78796;SDS011;68145;52.514;13.460;2023-05-07T14:20:44;4.45;;;2.38;;
78796;SDS011;68145;52.514;13.460;2023-05-07T14:23:11;3.95;;;1.90;;
78796;SDS011;68145;52.514;13.460;2023-05-07T14:25:37;4.53;;;2.45;;
78796;SDS011;68145;52.514;13.460;2023-05-07T14:28:04;4.72;;;2.30;;
78796;SDS011;68145;52.514;13.460;2023-05-07T14:30:30;5.88;;;3.53;;
78796;SDS011;68145;52.514;13.460;2023-05-07T14:32:56;4.25;;;2.72;;
78796;SDS011;68145;52.514;13.460;2023-05-07T14:35:22;4.90;;;2.17;;
78796;SDS011;68145;52.514;13.460;2023-05-07T14:37:48;3.83;;;1.90;;
78796;SDS011;68145;52.514;13.460;2023-05-07T14:40:14;3.97;;;2.58;;